Time;durP1;ratioP1;P1;durP2;ratioP2;P2;SDS_P1;SDS_P2;PMS_P1;PMS_P2;Temp;Humidity;BMP_temperature;BMP_pressure;BME280_temperature;BME280_humidity;BME280_pressure;Samples;Min_cycle;Max_cycle;Signal;HPM_P1;HPM_P2
2023/12/01 00:02:02;;;;;;;49.30;22.17;;;;;;;2.25;100.00;94814.69;4977775;28;20236;-72
2023/12/01 00:04:28;;;;;;;49.07;22.80;;;;;;;2.37;100.00;94807.50;5015046;28;20242;-71
2023/12/01 00:06:54;;;;;;;52.37;23.17;;;;;;;2.19;100.00;94807.56;4982561;28;20655;-72
2023/12/01 00:09:19;;;;;;;47.47;22.33;;;;;;;2.33;100.00;94813.94;4981611;28;20618;-72
2023/12/01 00:11:48;;;;;;;51.90;22.70;;;;;;;2.41;100.00;94824.31;5013469;28;20219;-72
2023/12/01 00:14:13;;;;;;;47.63;22.80;;;;;;;2.31;100.00;94823.59;4998188;28;20238;-72
2023/12/01 00:16:39;;;;;;;51.90;23.13;;;;;;;2.43;100.00;94822.38;5005292;28;20273;-71
2023/12/01 00:19:04;;;;;;;51.27;22.80;;;;;;;2.34;100.00;94820.72;5013514;28;20810;-71
2023/12/01 00:21:30;;;;;;;45.63;21.53;;;;;;;2.23;100.00;94826.13;4997000;28;20249;-72
2023/12/01 00:23:55;;;;;;;48.20;21.63;;;;;;;2.56;100.00;94821.00;5000711;28;20257;-72
2023/12/01 00:26:21;;;;;;;47.50;20.97;;;;;;;2.53;100.00;94810.97;5013232;28;20323;-71
2023/12/01 00:28:47;;;;;;;47.57;21.43;;;;;;;2.46;100.00;94809.19;4995568;28;20757;-76
2023/12/01 00:31:12;;;;;;;46.97;20.57;;;;;;;2.39;100.00;94797.84;4998937;28;20238;-77
2023/12/01 00:33:38;;;;;;;48.57;20.60;;;;;;;2.39;100.00;94797.84;4987566;28;20231;-76
2023/12/01 00:36:04;;;;;;;47.03;21.40;;;;;;;2.29;100.00;94804.88;5012341;28;20309;-76
2023/12/01 00:38:29;;;;;;;45.40;20.27;;;;;;;2.46;100.00;94814.34;4992187;28;20834;-77
2023/12/01 00:40:55;;;;;;;42.83;19.70;;;;;;;2.36;100.00;94806.69;5016548;28;20317;-77
2023/12/01 00:43:21;;;;;;;46.47;21.20;;;;;;;2.23;100.00;94783.06;4992694;28;20756;-76
2023/12/01 00:45:46;;;;;;;44.73;19.80;;;;;;;2.20;100.00;94792.88;5012427;28;20269;-72
2023/12/01 00:48:12;;;;;;;45.27;19.77;;;;;;;2.39;100.00;94806.38;5001500;28;20242;-72
2023/12/01 00:50:39;;;;;;;45.97;20.20;;;;;;;2.50;100.00;94800.16;4988578;28;20317;-72
2023/12/01 00:53:05;;;;;;;44.80;20.53;;;;;;;2.31;100.00;94806.34;5008489;28;20242;-72
2023/12/01 00:55:30;;;;;;;43.40;19.80;;;;;;;2.53;100.00;94813.56;4995293;28;20365;-72
2023/12/01 00:57:56;;;;;;;44.80;19.40;;;;;;;2.58;100.00;94807.97;4987643;28;20222;-72
2023/12/01 01:00:22;;;;;;;43.80;19.37;;;;;;;2.58;100.00;94820.88;4979005;28;20602;-72
2023/12/01 01:02:50;;;;;;;42.53;19.63;;;;;;;2.36;100.00;94796.38;4998144;28;20249;-72
2023/12/01 01:05:16;;;;;;;47.80;20.13;;;;;;;2.28;100.00;94780.00;5004991;28;20233;-72
2023/12/01 01:07:42;;;;;;;42.27;20.37;;;;;;;2.18;100.00;94798.19;5014710;28;20226;-72
2023/12/01 01:10:07;;;;;;;42.20;20.43;;;;;;;2.31;100.00;94790.84;4997803;28;20773;-73
2023/12/01 01:12:33;;;;;;;46.37;20.30;;;;;;;2.38;100.00;94791.03;5007688;28;20624;-72
2023/12/01 01:15:02;;;;;;;42.87;20.87;;;;;;;2.21;100.00;94792.72;5014358;28;20238;-72
2023/12/01 01:17:31;;;;;;;41.27;19.63;;;;;;;2.13;100.00;94774.59;5004693;28;20277;-72
2023/12/01 01:19:58;;;;;;;41.00;19.43;;;;;;;2.25;100.00;94799.19;4999157;28;20913;-72
2023/12/01 01:22:24;;;;;;;42.23;19.50;;;;;;;2.15;100.00;94792.53;5004097;28;20234;-73
2023/12/01 01:24:50;;;;;;;39.53;18.13;;;;;;;2.03;100.00;94768.72;4995615;28;20245;-73
2023/12/01 01:27:16;;;;;;;45.23;20.60;;;;;;;2.20;100.00;94795.47;5008466;28;20226;-74
2023/12/01 01:29:41;;;;;;;46.53;20.10;;;;;;;2.22;100.00;94783.22;4986161;28;20230;-73
2023/12/01 01:32:07;;;;;;;41.63;20.17;;;;;;;2.37;100.00;94781.66;5001317;28;20232;-72
2023/12/01 01:34:32;;;;;;;43.67;20.77;;;;;;;2.57;100.00;94777.91;4997347;28;20360;-73
2023/12/01 01:36:58;;;;;;;44.83;20.33;;;;;;;2.49;100.00;94778.69;5007891;28;20373;-73
2023/12/01 01:39:23;;;;;;;41.57;19.33;;;;;;;2.52;100.00;94780.16;5009785;28;20257;-73
2023/12/01 01:41:49;;;;;;;42.63;19.70;;;;;;;2.30;100.00;94760.81;5012799;28;20226;-73
2023/12/01 01:44:14;;;;;;;45.73;21.30;;;;;;;1.98;100.00;94748.53;5003728;28;20245;-73
2023/12/01 01:46:40;;;;;;;40.63;21.53;;;;;;;2.31;100.00;94761.63;5009914;28;20316;-72
2023/12/01 01:49:05;;;;;;;44.93;21.07;;;;;;;2.41;100.00;94777.84;5000912;28;20666;-73
2023/12/01 01:51:34;;;;;;;43.13;19.30;;;;;;;2.37;100.00;94767.00;5009286;28;20337;-73
2023/12/01 01:53:59;;;;;;;40.90;18.70;;;;;;;2.52;100.00;94777.56;4997049;28;20238;-72
2023/12/01 01:56:25;;;;;;;42.23;19.03;;;;;;;2.10;100.00;94749.09;4980035;28;20279;-73
2023/12/01 01:58:51;;;;;;;39.07;17.83;;;;;;;2.35;100.00;94765.53;4972098;28;20227;-73
2023/12/01 02:01:16;;;;;;;38.37;18.33;;;;;;;2.36;100.00;94769.75;4998265;28;20237;-72
2023/12/01 02:03:42;;;;;;;40.63;18.53;;;;;;;2.48;100.00;94763.34;5004896;28;20265;-73
2023/12/01 02:06:08;;;;;;;36.93;17.43;;;;;;;2.37;100.00;94746.34;5007938;28;20233;-73
2023/12/01 02:08:33;;;;;;;46.20;20.93;;;;;;;2.48;100.00;94748.66;5014634;28;20237;-73
2023/12/01 02:10:59;;;;;;;43.83;21.50;;;;;;;2.51;100.00;94760.44;5026340;28;20234;-73
2023/12/01 02:13:25;;;;;;;40.00;19.67;;;;;;;2.46;100.00;94745.41;5003483;28;20238;-73
2023/12/01 02:15:51;;;;;;;41.43;19.20;;;;;;;2.23;100.00;94734.00;5014452;28;20321;-73
2023/12/01 02:18:23;;;;;;;58.23;27.80;;;;;;;2.37;100.00;94746.34;4986481;28;20239;-73
2023/12/01 02:20:52;;;;;;;44.40;20.17;;;;;;;2.44;100.00;94749.91;4999022;28;20230;-72
2023/12/01 02:23:18;;;;;;;39.80;18.17;;;;;;;2.39;100.00;94739.25;4968326;28;20263;-73
2023/12/01 02:25:44;;;;;;;40.33;19.27;;;;;;;2.46;100.00;94749.78;4997228;28;20233;-72
2023/12/01 02:28:09;;;;;;;41.83;19.23;;;;;;;2.35;100.00;94737.94;5014623;28;20241;-73
2023/12/01 02:30:35;;;;;;;37.10;17.87;;;;;;;2.42;100.00;94745.88;4990018;28;20311;-72
2023/12/01 02:33:01;;;;;;;41.00;18.43;;;;;;;2.33;100.00;94750.19;5000763;28;20231;-73
2023/12/01 02:35:29;;;;;;;43.80;20.87;;;;;;;2.28;100.00;94749.84;5008097;28;20222;-72
2023/12/01 02:38:01;;;;;;;48.00;21.17;;;;;;;2.30;100.00;94763.41;5006787;28;20222;-72
2023/12/01 02:40:27;;;;;;;37.60;18.17;;;;;;;2.42;100.00;94764.75;4986261;28;20315;-73
2023/12/01 02:42:53;;;;;;;41.43;18.93;;;;;;;2.31;100.00;94754.72;4967841;28;20905;-73
2023/12/01 02:45:19;;;;;;;38.30;18.67;;;;;;;2.37;100.00;94753.25;4990773;28;20234;-72
2023/12/01 02:47:47;;;;;;;45.63;19.43;;;;;;;2.29;100.00;94743.72;4987825;28;20227;-73
2023/12/01 02:50:13;;;;;;;39.47;18.00;;;;;;;2.31;100.00;94749.53;4981715;28;20245;-73
2023/12/01 02:52:39;;;;;;;42.50;18.47;;;;;;;2.02;100.00;94718.91;5011879;28;20829;-73
2023/12/01 02:55:04;;;;;;;41.87;19.77;;;;;;;2.06;100.00;94737.44;4990680;28;20242;-73
2023/12/01 02:57:30;;;;;;;43.20;19.60;;;;;;;2.42;100.00;94749.25;5016920;28;20289;-73
2023/12/01 02:59:55;;;;;;;44.53;18.50;;;;;;;2.24;100.00;94720.16;5013155;28;20257;-72
2023/12/01 03:02:22;;;;;;;38.10;17.80;;;;;;;2.48;100.00;94743.50;5013266;28;21700;-72
2023/12/01 03:04:47;;;;;;;42.77;21.27;;;;;;;2.57;100.00;94729.66;5003673;28;20242;-73
2023/12/01 03:07:13;;;;;;;45.67;20.97;;;;;;;2.47;100.00;94728.13;5005997;28;20273;-72
2023/12/01 03:09:38;;;;;;;40.33;19.80;;;;;;;2.61;100.00;94723.19;5014467;28;20643;-72
2023/12/01 03:12:04;;;;;;;43.37;19.33;;;;;;;2.39;100.00;94715.22;4985369;28;20230;-73
2023/12/01 03:14:30;;;;;;;39.60;19.30;;;;;;;2.58;100.00;94735.63;4999901;28;20233;-73
2023/12/01 03:16:56;;;;;;;40.33;18.73;;;;;;;2.51;100.00;94730.25;5002378;28;20718;-72
2023/12/01 03:19:22;;;;;;;38.53;18.17;;;;;;;2.71;100.00;94756.66;4999068;28;20298;-72
2023/12/01 03:21:48;;;;;;;38.03;18.23;;;;;;;2.60;100.00;94736.28;5012552;28;20698;-73
2023/12/01 03:24:14;;;;;;;36.73;17.37;;;;;;;2.61;100.00;94741.28;5004938;28;20235;-72
2023/12/01 03:26:39;;;;;;;34.97;15.87;;;;;;;2.77;100.00;94727.59;5018682;28;20326;-72
2023/12/01 03:29:05;;;;;;;39.87;19.00;;;;;;;2.82;100.00;94732.31;5014285;28;20280;-73
2023/12/01 03:31:30;;;;;;;36.87;18.03;;;;;;;2.86;100.00;94742.19;5000264;28;20258;-71
2023/12/01 03:33:56;;;;;;;38.20;17.77;;;;;;;2.80;100.00;94721.31;4997506;28;20292;-72
2023/12/01 03:36:21;;;;;;;37.27;16.87;;;;;;;2.72;100.00;94709.97;4985778;28;20265;-73
2023/12/01 03:38:47;;;;;;;36.13;17.00;;;;;;;2.88;100.00;94723.94;5017501;28;20257;-72
2023/12/01 03:41:13;;;;;;;34.57;16.33;;;;;;;2.88;100.00;94716.19;4968752;28;20609;-77
2023/12/01 03:43:39;;;;;;;32.00;15.57;;;;;;;2.52;100.00;94708.66;4994997;28;20236;-76
2023/12/01 03:46:05;;;;;;;29.30;14.57;;;;;;;2.56;100.00;94698.78;5012050;28;20684;-78
2023/12/01 03:48:33;;;;;;;32.80;16.00;;;;;;;2.60;100.00;94718.19;4978035;28;20238;-78
2023/12/01 03:50:59;;;;;;;32.60;14.97;;;;;;;2.58;100.00;94700.25;5010567;28;20239;-77
2023/12/01 03:53:25;;;;;;;31.93;16.43;;;;;;;2.71;100.00;94731.63;4978826;28;20940;-77
2023/12/01 03:55:51;;;;;;;28.70;14.47;;;;;;;2.85;100.00;94725.03;5008152;28;20739;-78
2023/12/01 03:58:17;;;;;;;31.80;14.53;;;;;;;2.83;100.00;94736.50;4984221;28;20253;-77
2023/12/01 04:00:43;;;;;;;29.40;13.83;;;;;;;3.05;100.00;94749.66;5023098;28;20285;-77
2023/12/01 04:03:08;;;;;;;28.10;14.53;;;;;;;2.72;100.00;94716.94;5013842;28;20226;-77
2023/12/01 04:05:34;;;;;;;30.50;16.03;;;;;;;2.78;100.00;94738.75;4981958;28;20300;-78
2023/12/01 04:07:59;;;;;;;27.97;14.40;;;;;;;2.92;100.00;94736.38;5009328;28;20235;-77
2023/12/01 04:10:25;;;;;;;31.50;14.70;;;;;;;2.82;100.00;94709.06;5009181;28;20699;-77
2023/12/01 04:12:51;;;;;;;28.57;13.80;;;;;;;3.00;100.00;94720.09;5003860;28;20230;-77
2023/12/01 04:15:19;;;;;;;29.93;14.40;;;;;;;2.95;100.00;94719.75;5014873;28;20270;-77
2023/12/01 04:17:46;;;;;;;33.33;15.90;;;;;;;3.05;100.00;94731.56;5015036;28;20312;-77
2023/12/01 04:20:25;;;;;;;31.47;14.27;;;;;;;2.90;100.00;94703.91;5014995;28;20238;-77
2023/12/01 04:22:52;;;;;;;30.53;15.03;;;;;;;2.91;100.00;94742.53;4992308;28;20227;-79
2023/12/01 04:25:18;;;;;;;29.27;14.10;;;;;;;3.10;100.00;94737.06;4968050;28;20716;-72
2023/12/01 04:27:45;;;;;;;41.53;18.27;;;;;;;2.89;100.00;94691.97;4990506;28;20266;-73
2023/12/01 04:30:14;;;;;;;27.70;14.60;;;;;;;2.95;100.00;94717.16;4995538;28;20238;-72
2023/12/01 04:32:47;;;;;;;34.70;15.93;;;;;;;3.02;100.00;94707.81;5010419;28;20234;-73
2023/12/01 04:35:13;;;;;;;30.13;15.57;;;;;;;2.98;100.00;94719.44;4992905;28;20281;-77
2023/12/01 04:37:42;;;;;;;35.07;17.47;;;;;;;2.64;100.00;94691.91;5013348;28;20226;-77
2023/12/01 04:40:17;;;;;;;34.70;15.20;;;;;;;3.02;100.00;94712.97;4996078;28;20904;-73
2023/12/01 04:42:44;;;;;;;31.63;14.17;;;;;;;3.00;100.00;94718.31;5013618;28;20229;-73
2023/12/01 04:45:13;;;;;;;32.70;16.13;;;;;;;2.64;100.00;94684.16;5010658;28;20234;-73
2023/12/01 04:47:41;;;;;;;29.83;15.00;;;;;;;2.81;100.00;94731.50;5015749;28;20230;-73
2023/12/01 04:50:12;;;;;;;29.17;15.07;;;;;;;2.76;100.00;94689.81;4998021;28;20230;-73
2023/12/01 04:52:46;;;;;;;28.17;12.87;;;;;;;3.06;100.00;94717.66;4998594;28;21045;-72
2023/12/01 04:55:13;;;;;;;29.83;13.30;;;;;;;3.15;100.00;94703.78;5009617;28;20733;-72
2023/12/01 04:57:39;;;;;;;25.70;12.63;;;;;;;3.09;100.00;94660.47;4966313;28;20243;-72
2023/12/01 05:00:19;;;;;;;28.37;14.17;;;;;;;3.30;100.00;94678.09;4976114;28;20277;-73
2023/12/01 05:03:01;;;;;;;24.10;11.77;;;;;;;3.40;100.00;94707.19;4995159;28;20354;-72
2023/12/01 05:05:31;;;;;;;21.73;10.47;;;;;;;3.41;100.00;94677.78;5004193;28;20234;-72
2023/12/01 05:07:58;;;;;;;21.43;10.90;;;;;;;3.56;100.00;94689.09;5027596;28;20250;-72
2023/12/01 05:10:25;;;;;;;22.63;11.23;;;;;;;3.51;100.00;94690.56;4977770;28;20222;-72
2023/12/01 05:12:54;;;;;;;20.50;10.47;;;;;;;3.46;100.00;94685.88;5009855;28;20538;-72
2023/12/01 05:15:23;;;;;;;19.23;10.57;;;;;;;3.56;100.00;94725.31;4998089;28;20312;-73
2023/12/01 05:17:51;;;;;;;21.33;10.70;;;;;;;3.60;100.00;94724.03;5012611;28;20226;-73
2023/12/01 05:20:17;;;;;;;23.63;10.40;;;;;;;3.58;100.00;94718.22;4979490;28;20222;-72
2023/12/01 05:22:49;;;;;;;24.43;10.93;;;;;;;3.38;100.00;94693.63;4996173;28;20233;-73
2023/12/01 05:25:15;;;;;;;24.33;11.73;;;;;;;3.40;100.00;94702.03;4975712;28;20408;-73
2023/12/01 05:27:49;;;;;;;23.77;11.83;;;;;;;3.58;100.00;94718.22;4982332;28;20227;-71
2023/12/01 05:30:16;;;;;;;22.40;11.17;;;;;;;3.46;100.00;94693.63;4980826;28;20787;-73
2023/12/01 05:32:45;;;;;;;23.47;11.20;;;;;;;3.32;100.00;94686.50;5007373;28;20227;-74
2023/12/01 05:35:12;;;;;;;22.40;11.10;;;;;;;3.35;100.00;94689.59;4994935;28;20243;-75
2023/12/01 05:37:41;;;;;;;23.90;11.37;;;;;;;3.49;100.00;94680.34;4995832;28;20670;-73
2023/12/01 05:40:08;;;;;;;24.00;11.63;;;;;;;3.68;100.00;94724.00;5001885;28;20234;-73
2023/12/01 05:42:34;;;;;;;21.73;10.97;;;;;;;3.75;100.00;94724.97;4993639;28;20229;-72
2023/12/01 05:45:00;;;;;;;19.10;10.37;;;;;;;3.60;100.00;94671.47;4993209;28;20254;-71
2023/12/01 05:47:25;;;;;;;21.90;11.47;;;;;;;3.58;100.00;94707.88;4995083;28;20637;-71
2023/12/01 05:49:51;;;;;;;20.30;9.97;;;;;;;3.68;100.00;94692.19;5004336;28;20314;-71
2023/12/01 05:52:17;;;;;;;25.60;10.43;;;;;;;3.54;100.00;94695.38;5011221;28;20329;-71
2023/12/01 05:54:42;;;;;;;28.17;13.83;;;;;;;3.54;100.00;94698.78;5005411;28;20838;-71
2023/12/01 05:57:08;;;;;;;33.30;17.43;;;;;;;3.63;100.00;94691.84;4978833;28;20238;-72
2023/12/01 05:59:34;;;;;;;31.37;15.43;;;;;;;3.77;100.00;94714.47;4998521;28;20236;-71
2023/12/01 06:01:59;;;;;;;25.93;12.23;;;;;;;3.70;100.00;94708.34;4979110;28;20267;-71
2023/12/01 06:04:25;;;;;;;37.83;18.13;;;;;;;3.58;100.00;94687.16;5012530;28;20234;-71
2023/12/01 06:06:51;;;;;;;21.70;10.47;;;;;;;3.81;100.00;94718.34;5009801;28;20302;-71
2023/12/01 06:09:17;;;;;;;27.17;13.83;;;;;;;3.77;100.00;94696.38;4993727;28;20270;-72
2023/12/01 06:11:44;;;;;;;25.83;11.63;;;;;;;3.83;100.00;94693.09;5005761;28;20252;-72
2023/12/01 06:14:09;;;;;;;22.80;10.77;;;;;;;3.88;100.00;94704.59;4997169;28;20260;-72
2023/12/01 06:16:35;;;;;;;21.87;11.03;;;;;;;3.97;100.00;94695.84;5009574;28;20250;-72
2023/12/01 06:19:00;;;;;;;22.27;10.53;;;;;;;4.06;100.00;94710.38;5011909;28;20229;-71
2023/12/01 06:21:26;;;;;;;25.67;13.60;;;;;;;4.07;100.00;94717.19;5014091;28;20253;-72
2023/12/01 06:23:52;;;;;;;22.00;10.13;;;;;;;3.88;100.00;94701.19;5013981;28;20269;-71
2023/12/01 06:26:17;;;;;;;23.30;12.50;;;;;;;4.08;100.00;94716.19;5005412;28;20258;-71
2023/12/01 06:28:43;;;;;;;25.67;13.20;;;;;;;3.97;100.00;94713.16;4995531;28;20680;-71
2023/12/01 06:31:10;;;;;;;24.80;12.17;;;;;;;3.97;100.00;94701.00;5006400;28;20318;-72
2023/12/01 06:33:35;;;;;;;20.67;11.07;;;;;;;4.21;100.00;94725.22;4967211;28;20227;-71
2023/12/01 06:36:01;;;;;;;23.77;12.07;;;;;;;4.26;100.00;94726.38;5011101;28;20255;-72
2023/12/01 06:38:26;;;;;;;24.03;13.27;;;;;;;4.20;100.00;94701.13;4981846;28;20260;-72
2023/12/01 06:40:52;;;;;;;25.33;12.67;;;;;;;4.27;100.00;94720.22;5012784;28;20257;-72
2023/12/01 06:43:18;;;;;;;27.47;13.93;;;;;;;4.33;100.00;94722.13;5018016;28;20226;-72
2023/12/01 06:45:44;;;;;;;29.43;14.47;;;;;;;4.07;100.00;94699.06;5014964;28;20259;-72
2023/12/01 06:48:10;;;;;;;25.70;12.73;;;;;;;4.20;100.00;94723.63;4999631;28;20241;-72
2023/12/01 06:50:36;;;;;;;32.63;15.80;;;;;;;4.33;100.00;94706.59;5002621;28;20645;-73
2023/12/01 06:53:02;;;;;;;39.07;18.17;;;;;;;4.41;100.00;94721.31;4999680;28;20234;-73
2023/12/01 06:55:27;;;;;;;39.00;17.57;;;;;;;4.40;100.00;94686.00;4996616;28;20309;-73
2023/12/01 06:57:53;;;;;;;38.93;17.87;;;;;;;4.56;100.00;94727.41;4991675;28;20737;-72
2023/12/01 07:00:33;;;;;;;26.73;13.10;;;;;;;4.50;100.00;94707.34;5013206;28;20249;-73
2023/12/01 07:03:04;;;;;;;25.60;12.47;;;;;;;4.54;100.00;94742.28;4986569;28;20802;-72
2023/12/01 07:05:31;;;;;;;29.97;14.47;;;;;;;4.61;100.00;94749.25;4989105;28;20222;-72
2023/12/01 07:07:57;;;;;;;25.00;13.07;;;;;;;4.56;100.00;94724.81;5004127;28;20284;-73
2023/12/01 07:10:22;;;;;;;25.83;12.23;;;;;;;4.45;100.00;94728.56;4999738;28;20334;-73
2023/12/01 07:12:49;;;;;;;32.30;16.80;;;;;;;4.70;100.00;94743.03;5018013;28;20225;-73
2023/12/01 07:15:20;;;;;;;41.90;19.37;;;;;;;4.87;100.00;94725.66;4995999;28;20230;-72
2023/12/01 07:17:52;;;;;;;33.80;17.00;;;;;;;4.90;100.00;94714.94;5014667;28;20231;-72
2023/12/01 07:20:18;;;;;;;31.73;15.40;;;;;;;5.05;100.00;94726.22;4997175;28;20288;-73
2023/12/01 07:22:47;;;;;;;38.13;17.97;;;;;;;4.98;100.00;94716.69;5012720;28;20634;-73
2023/12/01 07:25:22;;;;;;;40.20;18.37;;;;;;;5.10;100.00;94729.09;4994924;28;20253;-73
2023/12/01 07:27:52;;;;;;;37.93;19.03;;;;;;;5.10;100.00;94736.06;5006667;28;20226;-72
2023/12/01 07:30:18;;;;;;;42.60;19.43;;;;;;;5.03;100.00;94722.16;4999487;28;20246;-74
2023/12/01 07:32:45;;;;;;;34.37;17.17;;;;;;;5.05;100.00;94718.44;5013247;28;20231;-73
2023/12/01 07:35:10;;;;;;;53.23;25.13;;;;;;;5.20;100.00;94718.50;4991486;28;20715;-73
2023/12/01 07:37:37;;;;;;;44.30;19.23;;;;;;;5.19;100.00;94712.50;4998479;28;20229;-73
2023/12/01 07:40:06;;;;;;;41.97;19.80;;;;;;;5.27;100.00;94716.84;5004923;28;20258;-74
2023/12/01 07:42:32;;;;;;;44.90;22.60;;;;;;;5.15;100.00;94702.66;5012293;28;20266;-73
2023/12/01 07:44:59;;;;;;;38.73;17.87;;;;;;;5.17;100.00;94734.41;5014039;28;20287;-73
2023/12/01 07:47:24;;;;;;;55.80;24.27;;;;;;;5.28;100.00;94742.59;4989484;28;20240;-73
2023/12/01 07:49:50;;;;;;;42.20;19.97;;;;;;;5.45;100.00;94751.91;5005285;28;20235;-73
2023/12/01 07:52:17;;;;;;;49.83;22.77;;;;;;;5.49;100.00;94739.41;4996500;28;20238;-73
2023/12/01 07:54:42;;;;;;;53.20;21.17;;;;;;;5.58;100.00;94727.97;5013047;28;20226;-74
2023/12/01 07:57:09;;;;;;;44.30;19.77;;;;;;;5.58;100.00;94729.75;4981712;28;20281;-74
2023/12/01 07:59:36;;;;;;;39.20;17.93;;;;;;;5.52;100.00;94713.09;5011286;28;20283;-72
2023/12/01 08:02:02;;;;;;;55.97;24.97;;;;;;;5.60;100.00;94710.44;5011512;28;20233;-72
2023/12/01 08:04:27;;;;;;;53.03;24.67;;;;;;;5.63;100.00;94743.84;4993805;28;20843;-72
2023/12/01 08:06:55;;;;;;;46.70;22.57;;;;;;;5.54;100.00;94749.25;4981720;28;20246;-73
2023/12/01 08:09:22;;;;;;;43.40;22.73;;;;;;;5.46;100.00;94739.75;5011784;28;20234;-73
2023/12/01 08:11:48;;;;;;;46.07;23.23;;;;;;;5.63;100.00;94756.00;5015194;28;20255;-73
2023/12/01 08:14:13;;;;;;;45.10;21.90;;;;;;;5.69;100.00;94756.13;5005646;28;20385;-72
2023/12/01 08:16:39;;;;;;;41.77;21.27;;;;;;;5.71;100.00;94743.75;5014565;28;20730;-72
2023/12/01 08:19:06;;;;;;;42.07;18.80;;;;;;;5.72;100.00;94739.38;4998743;28;20260;-73
2023/12/01 08:21:32;;;;;;;40.77;20.23;;;;;;;5.81;100.00;94733.13;5001535;28;20364;-73
2023/12/01 08:23:58;;;;;;;41.50;18.87;;;;;;;5.84;100.00;94757.00;4999239;28;20776;-73
2023/12/01 08:26:24;;;;;;;38.13;18.80;;;;;;;5.87;100.00;94768.84;5014185;28;20233;-73
2023/12/01 08:28:49;;;;;;;38.33;17.50;;;;;;;5.99;100.00;94793.41;4999117;28;20618;-73
2023/12/01 08:31:16;;;;;;;36.30;17.30;;;;;;;5.91;100.00;94759.72;4999083;28;20221;-73
2023/12/01 08:33:42;;;;;;;38.23;18.43;;;;;;;5.91;100.00;94755.34;5002821;28;20237;-73
2023/12/01 08:36:09;;;;;;;38.53;16.77;;;;;;;5.98;100.00;94755.44;5001842;28;20252;-73
2023/12/01 08:38:34;;;;;;;32.63;16.03;;;;;;;5.96;100.00;94716.66;5003388;28;20231;-73
2023/12/01 08:41:00;;;;;;;40.67;19.30;;;;;;;6.14;100.00;94768.28;5013156;28;20285;-73
2023/12/01 08:43:25;;;;;;;32.87;14.67;;;;;;;6.33;100.00;94733.19;5013535;28;20333;-73
2023/12/01 08:45:51;;;;;;;26.40;12.17;;;;;;;6.62;100.00;94730.59;5016894;28;20755;-73
2023/12/01 08:48:16;;;;;;;29.10;14.40;;;;;;;6.68;100.00;94742.88;4993285;28;20737;-73
2023/12/01 08:50:44;;;;;;;27.63;13.83;;;;;;;6.78;100.00;94720.00;4976733;28;20227;-73
2023/12/01 08:53:09;;;;;;;25.50;12.43;;;;;;;6.88;100.00;94725.72;4976281;28;20234;-71
2023/12/01 08:55:35;;;;;;;33.43;14.53;;;;;;;6.90;100.00;94730.75;5013121;28;20257;-72
2023/12/01 08:58:00;;;;;;;27.03;13.90;;;;;;;6.93;100.00;94719.97;5007229;28;20697;-71
2023/12/01 09:00:26;;;;;;;25.63;12.83;;;;;;;7.07;100.00;94711.34;4983262;28;20691;-71
2023/12/01 09:02:52;;;;;;;24.73;13.50;;;;;;;7.09;100.00;94701.56;4979761;28;20281;-72
2023/12/01 09:05:17;;;;;;;25.00;12.93;;;;;;;7.14;100.00;94712.22;4995163;28;20296;-72
2023/12/01 09:07:46;;;;;;;27.23;13.60;;;;;;;7.28;100.00;94695.75;5004407;28;20618;-72
2023/12/01 09:10:13;;;;;;;24.57;12.53;;;;;;;7.46;100.00;94711.75;5004714;28;20241;-71
2023/12/01 09:12:38;;;;;;;24.00;12.30;;;;;;;7.57;100.00;94682.59;5005133;28;20235;-71
2023/12/01 09:15:05;;;;;;;28.53;13.47;;;;;;;7.66;100.00;94715.38;4979855;28;20247;-73
2023/12/01 09:17:30;;;;;;;31.20;15.27;;;;;;;7.69;100.00;94670.69;5010066;28;20619;-72
2023/12/01 09:19:56;;;;;;;23.03;11.53;;;;;;;7.76;100.00;94666.34;5014733;28;20329;-73
2023/12/01 09:22:21;;;;;;;22.80;11.30;;;;;;;7.79;100.00;94697.22;4998208;28;21470;-72
2023/12/01 09:24:47;;;;;;;27.77;13.97;;;;;;;7.81;100.00;94676.22;5005043;28;20321;-73
2023/12/01 09:27:13;;;;;;;22.07;11.77;;;;;;;7.81;100.00;94705.66;5011478;28;20233;-72
2023/12/01 09:29:39;;;;;;;26.70;12.57;;;;;;;7.80;100.00;94688.44;5012887;28;20237;-73
2023/12/01 09:32:04;;;;;;;31.87;16.00;;;;;;;7.71;100.00;94697.38;5013942;28;20226;-73
2023/12/01 09:34:30;;;;;;;40.97;18.63;;;;;;;7.62;100.00;94700.31;5012471;28;20238;-73
2023/12/01 09:36:56;;;;;;;38.07;18.07;;;;;;;7.67;100.00;94711.75;4965303;28;20322;-73
2023/12/01 09:39:21;;;;;;;52.40;24.67;;;;;;;7.53;100.00;94697.00;4985685;28;20244;-73
2023/12/01 09:41:47;;;;;;;47.83;23.30;;;;;;;7.61;100.00;94698.69;4966920;28;20258;-73
2023/12/01 09:44:12;;;;;;;46.97;22.33;;;;;;;7.59;100.00;94711.91;5010078;28;20345;-73
2023/12/01 09:46:39;;;;;;;45.73;21.50;;;;;;;7.58;100.00;94714.66;4993691;28;20264;-73
2023/12/01 09:49:05;;;;;;;41.07;19.70;;;;;;;7.52;100.00;94695.41;5004266;28;20322;-73
2023/12/01 09:51:34;;;;;;;44.33;22.57;;;;;;;7.56;100.00;94712.25;5013862;28;20226;-74
2023/12/01 09:54:00;;;;;;;42.93;22.27;;;;;;;7.48;100.00;94687.16;5013240;28;20784;-73
2023/12/01 09:56:26;;;;;;;45.47;22.57;;;;;;;7.63;100.00;94704.50;4989883;28;20230;-73
2023/12/01 09:58:51;;;;;;;44.93;22.17;;;;;;;7.71;100.00;94700.00;5002730;28;20327;-73
2023/12/01 10:01:17;;;;;;;72.37;34.53;;;;;;;7.89;100.00;94673.47;4978367;28;20231;-73
2023/12/01 10:03:43;;;;;;;61.30;30.30;;;;;;;7.99;100.00;94698.22;5011193;28;20234;-73
2023/12/01 10:06:08;;;;;;;51.60;24.97;;;;;;;8.01;100.00;94706.66;4995648;28;20272;-74
2023/12/01 10:08:34;;;;;;;41.53;20.93;;;;;;;8.06;100.00;94693.03;4997607;28;20733;-73
2023/12/01 10:11:00;;;;;;;42.27;19.80;;;;;;;8.07;100.00;94679.03;4983297;28;20269;-72
2023/12/01 10:13:32;;;;;;;42.47;21.43;;;;;;;8.11;100.00;94708.91;4976207;28;20315;-73
2023/12/01 10:15:57;;;;;;;36.27;18.37;;;;;;;8.28;100.00;94691.22;5009652;28;20680;-73
2023/12/01 10:18:23;;;;;;;32.83;16.03;;;;;;;8.43;100.00;94679.66;4983164;28;20773;-73
2023/12/01 10:21:07;;;;;;;28.70;13.53;;;;;;;8.70;100.00;94689.25;5015185;28;20234;-73
2023/12/01 10:23:33;;;;;;;26.83;13.10;;;;;;;9.08;100.00;94683.56;5015272;28;20375;-73
2023/12/01 10:25:59;;;;;;;21.50;10.57;;;;;;;9.65;100.00;94654.38;4991888;28;20228;-73
2023/12/01 10:28:39;;;;;;;23.77;10.63;;;;;;;9.94;100.00;94672.25;4998371;28;20249;-73
2023/12/01 10:31:05;;;;;;;20.77;8.73;;;;;;;10.25;98.37;94676.91;4992344;28;20234;-73
2023/12/01 10:33:31;;;;;;;20.27;9.87;;;;;;;10.52;97.34;94674.03;5001897;28;20226;-73
2023/12/01 10:36:07;;;;;;;18.80;8.63;;;;;;;10.91;98.29;94659.22;4999303;28;20254;-73
2023/12/01 10:38:33;;;;;;;19.20;8.97;;;;;;;11.16;95.61;94649.63;5015284;28;20234;-73
2023/12/01 10:40:59;;;;;;;19.17;9.07;;;;;;;11.07;95.82;94656.94;5016478;28;20233;-73
2023/12/01 10:43:26;;;;;;;17.33;10.70;;;;;;;11.10;95.10;94655.72;5012761;28;20293;-73
2023/12/01 10:45:52;;;;;;;21.50;9.30;;;;;;;11.36;92.72;94650.34;4996548;28;20373;-73
2023/12/01 10:48:19;;;;;;;20.03;9.53;;;;;;;11.66;90.80;94661.81;4976203;28;20316;-73
2023/12/01 10:50:48;;;;;;;24.43;11.20;;;;;;;11.94;93.93;94633.41;5016350;28;20275;-73
2023/12/01 10:53:14;;;;;;;28.10;12.93;;;;;;;12.02;92.09;94642.81;5002211;28;20230;-73
2023/12/01 10:55:41;;;;;;;27.90;12.70;;;;;;;11.93;93.40;94658.03;4987701;28;20258;-73
2023/12/01 10:58:07;;;;;;;26.83;13.17;;;;;;;11.96;92.32;94649.75;5013030;28;20369;-73
2023/12/01 11:00:33;;;;;;;27.67;14.27;;;;;;;12.04;93.16;94643.41;4999980;28;20251;-72
2023/12/01 11:03:00;;;;;;;28.40;13.87;;;;;;;11.84;94.04;94637.53;5014421;28;20295;-71
2023/12/01 11:05:27;;;;;;;23.83;12.70;;;;;;;11.93;92.65;94652.78;5007414;28;20231;-72
2023/12/01 11:08:05;;;;;;;24.13;12.30;;;;;;;12.30;93.71;94639.75;4997917;28;20234;-71
2023/12/01 11:10:42;;;;;;;27.70;13.87;;;;;;;12.29;92.00;94632.91;5009161;28;20650;-72
2023/12/01 11:13:28;;;;;;;36.37;17.27;;;;;;;12.55;91.20;94627.38;5022941;28;20249;-72
2023/12/01 11:15:53;;;;;;;30.30;14.60;;;;;;;12.62;90.68;94625.47;5016525;28;20976;-72